Time;durP1;ratioP1;P1;durP2;ratioP2;P2;SDS_P1;SDS_P2;PMS_P1;PMS_P2;Temp;Humidity;BMP_temperature;BMP_pressure;BME280_temperature;BME280_humidity;BME280_pressure;Samples;Min_cycle;Max_cycle;Signal;HPM_P1;HPM_P2
2024/01/07 00:01:48;;;;;;;2.70;2.60;;;4.80;99.90;;;;;;5017861;28;20216;-74
2024/01/07 00:04:16;;;;;;;2.70;2.60;;;4.80;99.90;;;;;;5014091;28;20902;-74
2024/01/07 00:06:44;;;;;;;2.70;2.60;;;4.70;99.90;;;;;;5014476;28;20319;-74
2024/01/07 00:09:13;;;;;;;2.55;2.45;;;4.70;99.90;;;;;;5015478;28;20220;-74
2024/01/07 00:11:40;;;;;;;2.50;2.40;;;4.70;99.90;;;;;;5015280;28;20537;-75
2024/01/07 00:14:07;;;;;;;2.70;2.60;;;4.70;99.90;;;;;;5015086;28;20695;-75
2024/01/07 00:16:34;;;;;;;2.78;2.67;;;4.70;99.90;;;;;;5013545;28;20275;-75
2024/01/07 00:19:01;;;;;;;2.60;2.50;;;4.70;99.90;;;;;;5014388;28;20226;-75
2024/01/07 00:21:28;;;;;;;2.58;2.47;;;4.70;99.90;;;;;;5015053;28;20219;-74
2024/01/07 00:23:57;;;;;;;2.85;2.75;;;4.70;99.90;;;;;;5015509;28;20230;-74
2024/01/07 00:26:24;;;;;;;1.85;1.85;;;4.70;99.90;;;;;;5016473;28;20907;-74
2024/01/07 00:28:51;;;;;;;2.33;2.22;;;4.80;99.90;;;;;;5012011;28;20224;-75
2024/01/07 00:31:18;;;;;;;2.30;2.20;;;4.80;99.90;;;;;;5017010;28;20203;-75
2024/01/07 00:33:45;;;;;;;2.55;2.45;;;4.80;99.90;;;;;;5013531;28;20231;-75
2024/01/07 00:36:13;;;;;;;2.60;2.50;;;4.80;99.90;;;;;;5016199;28;20204;-74
2024/01/07 00:38:40;;;;;;;2.45;2.35;;;4.80;99.90;;;;;;5013203;28;20227;-74
2024/01/07 00:41:08;;;;;;;2.38;2.28;;;4.80;99.90;;;;;;5016662;28;20654;-75
2024/01/07 00:43:35;;;;;;;2.58;2.47;;;4.80;99.90;;;;;;5017152;28;20230;-74
2024/01/07 00:46:02;;;;;;;2.50;2.40;;;4.80;99.90;;;;;;5014396;28;20211;-74
2024/01/07 00:48:29;;;;;;;2.30;2.20;;;4.90;99.90;;;;;;5015630;28;20211;-75
2024/01/07 00:50:56;;;;;;;2.42;2.33;;;4.90;99.90;;;;;;5016503;28;20208;-74
2024/01/07 00:53:23;;;;;;;2.40;2.30;;;4.90;99.90;;;;;;5016888;28;20223;-74
2024/01/07 00:55:50;;;;;;;2.47;2.38;;;4.90;99.90;;;;;;5016716;28;20200;-74
2024/01/07 00:58:19;;;;;;;2.40;2.30;;;5.00;99.90;;;;;;5014445;28;20230;-74
2024/01/07 01:00:46;;;;;;;2.25;2.15;;;5.00;99.90;;;;;;5015595;28;20219;-75
2024/01/07 01:03:13;;;;;;;2.50;2.40;;;5.00;99.90;;;;;;5015325;28;20234;-74
2024/01/07 01:05:40;;;;;;;2.50;2.30;;;5.00;99.90;;;;;;5010201;28;20775;-75
2024/01/07 01:08:07;;;;;;;2.30;2.20;;;5.00;99.90;;;;;;5014769;28;20229;-74
2024/01/07 01:10:34;;;;;;;1.85;1.85;;;5.10;99.90;;;;;;5013276;28;20291;-75
2024/01/07 01:13:01;;;;;;;2.30;2.20;;;5.10;99.90;;;;;;5013541;28;20215;-74
2024/01/07 01:15:30;;;;;;;2.13;2.03;;;5.10;99.90;;;;;;5011543;28;20209;-74
2024/01/07 01:17:58;;;;;;;2.40;2.30;;;5.10;99.90;;;;;;5012961;28;20234;-74
2024/01/07 01:20:25;;;;;;;2.25;2.17;;;5.10;99.90;;;;;;5011587;28;20192;-74
2024/01/07 01:22:52;;;;;;;2.20;2.10;;;5.10;99.90;;;;;;5012163;28;20234;-75
2024/01/07 01:25:19;;;;;;;2.30;2.20;;;5.10;99.90;;;;;;5011628;28;20199;-74
2024/01/07 01:27:46;;;;;;;2.85;2.75;;;5.10;99.90;;;;;;5012840;28;20238;-73
2024/01/07 01:30:13;;;;;;;2.60;2.50;;;5.10;99.90;;;;;;5012749;28;20212;-75
2024/01/07 01:32:42;;;;;;;2.55;2.45;;;5.10;99.90;;;;;;5011290;28;20317;-74
2024/01/07 01:35:10;;;;;;;2.45;2.35;;;5.10;99.90;;;;;;5013963;28;20658;-74
2024/01/07 01:37:37;;;;;;;2.78;2.67;;;5.10;99.90;;;;;;5013849;28;20231;-74
2024/01/07 01:40:05;;;;;;;2.78;2.67;;;5.10;99.90;;;;;;5021432;28;20203;-75
2024/01/07 01:42:32;;;;;;;2.45;2.35;;;5.10;99.90;;;;;;5016258;28;20234;-73
2024/01/07 01:45:01;;;;;;;2.40;2.30;;;5.10;99.90;;;;;;5019279;28;20250;-74
2024/01/07 01:47:28;;;;;;;2.10;2.00;;;5.10;99.90;;;;;;5017536;28;20587;-74
2024/01/07 01:49:57;;;;;;;2.45;2.35;;;5.10;99.90;;;;;;5017862;28;20219;-74
2024/01/07 01:52:25;;;;;;;2.40;2.30;;;5.10;99.90;;;;;;5013951;28;20226;-75
2024/01/07 01:54:52;;;;;;;2.22;2.13;;;5.10;99.90;;;;;;5016575;28;20204;-75
2024/01/07 01:57:25;;;;;;;2.35;2.25;;;5.10;99.90;;;;;;5018675;28;20238;-74
2024/01/07 01:59:53;;;;;;;2.50;2.40;;;5.00;99.90;;;;;;5017557;28;20666;-74
2024/01/07 02:02:20;;;;;;;2.20;2.10;;;5.00;99.90;;;;;;5014410;28;21895;-74
2024/01/07 02:04:47;;;;;;;2.17;2.08;;;5.00;99.90;;;;;;5018330;28;20230;-75
2024/01/07 02:07:15;;;;;;;2.33;2.22;;;5.00;99.90;;;;;;5014572;28;20223;-74
2024/01/07 02:09:42;;;;;;;2.33;2.22;;;4.90;99.90;;;;;;5015917;28;20196;-74
2024/01/07 02:12:11;;;;;;;2.38;2.28;;;5.00;99.90;;;;;;5015995;28;20231;-74
2024/01/07 02:14:39;;;;;;;2.30;2.20;;;5.00;99.90;;;;;;5013906;28;20207;-75
2024/01/07 02:17:06;;;;;;;2.40;2.30;;;4.90;99.90;;;;;;5015178;28;20734;-74
2024/01/07 02:19:33;;;;;;;2.30;2.20;;;5.00;99.90;;;;;;5015930;28;20203;-73
2024/01/07 02:22:00;;;;;;;2.13;2.03;;;5.00;99.90;;;;;;5013965;28;20212;-74
2024/01/07 02:24:30;;;;;;;2.20;2.10;;;5.00;99.90;;;;;;5016447;28;20192;-74
2024/01/07 02:26:57;;;;;;;2.50;2.30;;;5.00;99.90;;;;;;5016404;28;20305;-75
2024/01/07 02:29:24;;;;;;;2.25;2.15;;;5.00;99.90;;;;;;5014569;28;20211;-74
2024/01/07 02:31:51;;;;;;;2.60;2.50;;;4.90;99.90;;;;;;5010485;28;20196;-74
2024/01/07 02:34:18;;;;;;;2.17;2.08;;;4.90;99.90;;;;;;5018316;28;20215;-74
2024/01/07 02:36:45;;;;;;;1.95;1.95;;;4.90;99.90;;;;;;5015716;28;20199;-75
2024/01/07 02:39:12;;;;;;;2.30;2.20;;;4.90;99.90;;;;;;5016165;28;20287;-74
2024/01/07 02:41:40;;;;;;;2.17;2.13;;;5.00;99.90;;;;;;5014358;28;20222;-74
2024/01/07 02:44:07;;;;;;;2.08;2.00;;;5.00;99.90;;;;;;5016579;28;20249;-74
2024/01/07 02:46:34;;;;;;;2.53;2.42;;;5.00;99.90;;;;;;5014701;28;20223;-75
2024/01/07 02:49:01;;;;;;;2.50;2.40;;;5.10;99.90;;;;;;5014695;28;20215;-75
2024/01/07 02:51:28;;;;;;;2.60;2.50;;;5.10;99.90;;;;;;5016044;28;20239;-75
2024/01/07 02:53:55;;;;;;;2.33;2.22;;;5.10;99.90;;;;;;5016814;28;20753;-75
2024/01/07 02:56:22;;;;;;;2.33;2.22;;;5.10;99.90;;;;;;5015864;28;20202;-76
2024/01/07 02:58:51;;;;;;;2.35;2.25;;;5.10;99.90;;;;;;5014534;28;20235;-75
2024/01/07 03:01:18;;;;;;;2.10;2.00;;;5.10;99.90;;;;;;5014859;28;20207;-76
2024/01/07 03:03:45;;;;;;;2.45;2.35;;;5.20;99.90;;;;;;5011134;28;20237;-75
2024/01/07 03:06:12;;;;;;;2.30;2.20;;;5.20;99.90;;;;;;5019426;28;20291;-76
2024/01/07 03:08:39;;;;;;;2.38;2.28;;;5.10;99.90;;;;;;5016423;28;20235;-75
2024/01/07 03:11:07;;;;;;;2.63;2.53;;;5.10;99.90;;;;;;5015153;28;20208;-75
2024/01/07 03:13:34;;;;;;;2.30;2.20;;;5.10;99.90;;;;;;5014482;28;20862;-75
2024/01/07 03:16:03;;;;;;;2.55;2.45;;;5.10;99.90;;;;;;5015740;28;20701;-76
2024/01/07 03:18:30;;;;;;;2.22;2.17;;;5.10;99.90;;;;;;5017028;28;20314;-75
2024/01/07 03:20:57;;;;;;;2.20;2.10;;;5.10;99.90;;;;;;5015593;28;20212;-75
2024/01/07 03:23:24;;;;;;;2.17;2.10;;;5.00;99.90;;;;;;5015112;28;20313;-76
2024/01/07 03:25:51;;;;;;;2.33;2.22;;;5.00;99.90;;;;;;5010184;28;20212;-74
2024/01/07 03:28:18;;;;;;;2.22;2.13;;;5.00;99.90;;;;;;5015784;28;20243;-75
2024/01/07 03:30:45;;;;;;;2.30;2.20;;;4.90;99.90;;;;;;5014541;28;20235;-75
2024/01/07 03:33:14;;;;;;;2.50;2.40;;;5.00;99.90;;;;;;5011067;28;20215;-75
2024/01/07 03:35:41;;;;;;;2.20;2.10;;;4.90;99.90;;;;;;5015185;28;20204;-76
2024/01/07 03:38:08;;;;;;;2.20;2.10;;;4.90;99.90;;;;;;5012183;28;20242;-75
2024/01/07 03:40:35;;;;;;;2.28;2.20;;;5.00;99.90;;;;;;5015056;28;20208;-75
2024/01/07 03:43:02;;;;;;;2.40;2.30;;;5.00;99.90;;;;;;5013782;28;20235;-75
2024/01/07 03:45:29;;;;;;;2.30;2.20;;;5.00;99.90;;;;;;5015715;28;20205;-75
2024/01/07 03:47:56;;;;;;;2.33;2.22;;;5.10;99.90;;;;;;5012271;28;20307;-75
2024/01/07 03:50:25;;;;;;;1.92;1.92;;;5.10;99.90;;;;;;5012486;28;20200;-75
2024/01/07 03:52:52;;;;;;;2.60;2.50;;;5.10;99.90;;;;;;5015014;28;20955;-75
2024/01/07 03:55:19;;;;;;;2.47;2.38;;;5.00;99.90;;;;;;5013803;28;20203;-75
2024/01/07 03:57:46;;;;;;;2.30;2.20;;;5.00;99.90;;;;;;5015132;28;20231;-75
2024/01/07 04:00:13;;;;;;;1.85;1.85;;;5.10;99.90;;;;;;5012545;28;20203;-75
2024/01/07 04:02:40;;;;;;;2.20;2.10;;;5.10;99.90;;;;;;5012097;28;20223;-75
2024/01/07 04:05:09;;;;;;;2.08;1.98;;;5.20;99.90;;;;;;5014470;28;20694;-75
2024/01/07 04:07:37;;;;;;;1.98;1.92;;;5.20;99.90;;;;;;5014277;28;20636;-75
2024/01/07 04:10:05;;;;;;;2.25;2.15;;;5.20;99.90;;;;;;5015294;28;20212;-75
2024/01/07 04:12:33;;;;;;;2.08;2.00;;;5.20;99.90;;;;;;5012930;28;20234;-75
2024/01/07 04:15:00;;;;;;;2.10;2.00;;;5.20;99.90;;;;;;5013978;28;20239;-76
2024/01/07 04:17:27;;;;;;;2.10;2.10;;;5.10;99.90;;;;;;5015025;28;20216;-75
2024/01/07 04:19:54;;;;;;;2.35;2.25;;;5.10;99.90;;;;;;5012642;28;20207;-75
2024/01/07 04:22:21;;;;;;;2.20;2.10;;;5.10;99.90;;;;;;5014977;28;20497;-75
2024/01/07 04:24:49;;;;;;;2.25;2.15;;;5.10;99.90;;;;;;5014405;28;20255;-75
2024/01/07 04:27:16;;;;;;;2.03;2.00;;;5.20;99.90;;;;;;5013126;28;20258;-75
2024/01/07 04:29:43;;;;;;;2.08;2.00;;;5.20;99.90;;;;;;5015275;28;20779;-75
2024/01/07 04:32:10;;;;;;;2.40;2.20;;;5.30;99.90;;;;;;5012207;28;20231;-75
2024/01/07 04:34:37;;;;;;;1.83;1.83;;;5.30;99.90;;;;;;5014154;28;20219;-75
2024/01/07 04:37:05;;;;;;;2.28;2.05;;;5.20;99.90;;;;;;5010578;28;20227;-75
2024/01/07 04:39:32;;;;;;;2.20;2.10;;;5.20;99.90;;;;;;5016915;28;20865;-75
2024/01/07 04:42:00;;;;;;;2.40;2.30;;;5.20;99.90;;;;;;5011331;28;20215;-75
2024/01/07 04:44:27;;;;;;;1.65;1.65;;;5.20;99.90;;;;;;5012255;28;20244;-75
2024/01/07 04:46:54;;;;;;;2.20;2.10;;;5.10;99.90;;;;;;5013155;28;20215;-75
2024/01/07 04:49:21;;;;;;;2.05;2.05;;;5.10;99.90;;;;;;5015907;28;21107;-75
2024/01/07 04:51:48;;;;;;;2.03;2.00;;;5.20;99.90;;;;;;5011762;28;20215;-75
2024/01/07 04:54:15;;;;;;;2.25;2.15;;;5.20;99.90;;;;;;5012990;28;20610;-75
2024/01/07 04:56:42;;;;;;;2.40;2.30;;;5.30;99.90;;;;;;5012595;28;20204;-75
2024/01/07 04:59:11;;;;;;;2.50;2.40;;;5.30;99.90;;;;;;5010167;28;20242;-74
2024/01/07 05:01:39;;;;;;;2.25;2.15;;;5.30;99.90;;;;;;5013040;28;20295;-75
2024/01/07 05:04:06;;;;;;;2.20;2.10;;;5.20;99.90;;;;;;5013116;28;20289;-75
2024/01/07 05:06:33;;;;;;;2.20;2.10;;;5.20;99.90;;;;;;5015009;28;20207;-75
2024/01/07 05:09:00;;;;;;;2.20;2.10;;;5.20;99.90;;;;;;5013593;28;20227;-75
2024/01/07 05:11:27;;;;;;;1.95;1.95;;;5.20;99.90;;;;;;5011643;28;20340;-75
2024/01/07 05:13:54;;;;;;;2.22;2.13;;;5.20;99.90;;;;;;5013279;28;20230;-75
2024/01/07 05:16:23;;;;;;;1.92;1.92;;;5.20;99.90;;;;;;5013322;28;20212;-75
2024/01/07 05:18:50;;;;;;;2.33;2.22;;;5.10;99.90;;;;;;5010876;28;20770;-75
2024/01/07 05:21:19;;;;;;;2.22;2.13;;;5.10;99.90;;;;;;5011543;28;20953;-75
2024/01/07 05:23:47;;;;;;;2.30;2.20;;;5.00;99.90;;;;;;5014875;28;20257;-76
2024/01/07 05:26:14;;;;;;;2.20;2.10;;;5.10;99.90;;;;;;5012560;28;20689;-74
2024/01/07 05:28:41;;;;;;;2.10;2.10;;;5.10;99.90;;;;;;5009909;28;20219;-74
2024/01/07 05:31:15;;;;;;;2.10;2.00;;;5.20;99.90;;;;;;5011627;28;20218;-75
2024/01/07 05:33:44;;;;;;;2.17;2.08;;;5.20;99.90;;;;;;5011803;28;20231;-74
2024/01/07 05:36:11;;;;;;;1.95;1.95;;;5.30;99.90;;;;;;5010118;28;20236;-75
2024/01/07 05:38:38;;;;;;;2.40;2.30;;;5.30;99.90;;;;;;5013721;28;20234;-75
2024/01/07 05:41:05;;;;;;;2.38;2.28;;;5.30;99.90;;;;;;5015575;28;20597;-75
2024/01/07 05:43:32;;;;;;;2.17;2.08;;;5.30;99.90;;;;;;5011750;28;20223;-75
2024/01/07 05:45:59;;;;;;;2.17;2.08;;;5.30;99.90;;;;;;5012829;28;20192;-75
2024/01/07 05:48:26;;;;;;;2.08;2.03;;;5.30;99.90;;;;;;5011919;28;20216;-75
2024/01/07 05:50:55;;;;;;;1.80;1.80;;;5.30;99.90;;;;;;5007990;28;20233;-75
2024/01/07 05:53:22;;;;;;;2.33;2.22;;;5.40;99.90;;;;;;5012056;28;20239;-75
2024/01/07 05:55:49;;;;;;;2.45;2.35;;;5.40;99.90;;;;;;5013274;28;20254;-75
2024/01/07 05:58:16;;;;;;;1.92;1.92;;;5.40;99.90;;;;;;5012223;28;20234;-75
2024/01/07 06:00:43;;;;;;;2.50;2.40;;;5.40;99.90;;;;;;5012375;28;20212;-73
2024/01/07 06:03:12;;;;;;;2.08;1.98;;;5.40;99.90;;;;;;5011098;28;20738;-75
2024/01/07 06:05:39;;;;;;;1.92;1.90;;;5.40;99.90;;;;;;5012971;28;20550;-75
2024/01/07 06:08:08;;;;;;;2.00;2.00;;;5.40;99.90;;;;;;5012300;28;20707;-75
2024/01/07 06:10:35;;;;;;;2.20;2.10;;;5.50;99.90;;;;;;5013166;28;20208;-74
2024/01/07 06:13:03;;;;;;;2.08;2.08;;;5.50;99.90;;;;;;5013365;28;20224;-74
2024/01/07 06:15:30;;;;;;;2.15;2.08;;;5.50;99.90;;;;;;5013235;28;20210;-74
2024/01/07 06:17:57;;;;;;;2.00;2.00;;;5.50;99.90;;;;;;5013098;28;20672;-74
2024/01/07 06:20:24;;;;;;;1.92;1.88;;;5.50;99.90;;;;;;5011443;28;20201;-75
2024/01/07 06:22:51;;;;;;;1.90;1.90;;;5.50;99.90;;;;;;5012298;28;20239;-75
2024/01/07 06:25:20;;;;;;;2.40;2.30;;;5.60;99.90;;;;;;5015912;28;20210;-74
2024/01/07 06:27:47;;;;;;;1.85;1.85;;;5.60;99.90;;;;;;5016087;28;20312;-75
2024/01/07 06:30:16;;;;;;;2.20;2.10;;;5.60;99.90;;;;;;5016267;28;20207;-75
2024/01/07 06:32:45;;;;;;;2.35;2.25;;;5.60;99.90;;;;;;5015261;28;20232;-74
2024/01/07 06:35:12;;;;;;;1.98;1.88;;;5.60;99.90;;;;;;5015190;28;22108;-74
2024/01/07 06:37:39;;;;;;;2.10;2.10;;;5.60;99.90;;;;;;5019554;28;20230;-74
2024/01/07 06:40:07;;;;;;;2.35;2.25;;;5.60;99.90;;;;;;5013828;28;20219;-74
2024/01/07 06:42:36;;;;;;;2.25;2.15;;;5.60;99.90;;;;;;5014367;28;20310;-74
2024/01/07 06:45:04;;;;;;;1.98;1.88;;;5.60;99.90;;;;;;5016788;28;20211;-75
2024/01/07 06:47:31;;;;;;;2.45;2.35;;;5.60;99.90;;;;;;5015116;28;20644;-73
2024/01/07 06:49:58;;;;;;;2.13;2.10;;;5.60;99.90;;;;;;5015291;28;20216;-75
2024/01/07 06:52:25;;;;;;;1.90;1.90;;;5.60;99.90;;;;;;5015853;28;20223;-75
2024/01/07 06:54:52;;;;;;;2.00;2.00;;;5.60;99.90;;;;;;5017726;28;21021;-75
2024/01/07 06:57:19;;;;;;;1.80;1.80;;;5.60;99.90;;;;;;5015281;28;20215;-75
2024/01/07 06:59:47;;;;;;;2.10;2.00;;;5.60;99.90;;;;;;5015724;28;20211;-75
2024/01/07 07:02:14;;;;;;;2.05;2.00;;;5.60;99.90;;;;;;5014906;28;20230;-75
2024/01/07 07:04:41;;;;;;;1.90;1.90;;;5.60;99.90;;;;;;5018268;28;20199;-75
2024/01/07 07:07:08;;;;;;;2.10;2.00;;;5.70;99.90;;;;;;5017202;28;20224;-75
2024/01/07 07:09:35;;;;;;;1.75;1.75;;;5.70;99.90;;;;;;5019228;28;20702;-74
2024/01/07 07:12:02;;;;;;;2.28;2.17;;;5.80;99.90;;;;;;5016001;28;20211;-74
2024/01/07 07:14:29;;;;;;;2.30;2.20;;;5.80;99.90;;;;;;5013979;28;20208;-75
2024/01/07 07:16:58;;;;;;;2.22;2.13;;;5.80;99.90;;;;;;5014382;28;20207;-75
2024/01/07 07:19:25;;;;;;;1.95;1.95;;;5.80;99.90;;;;;;5016729;28;20200;-75
2024/01/07 07:21:53;;;;;;;2.10;2.05;;;5.80;99.90;;;;;;5012057;28;20220;-75
2024/01/07 07:24:20;;;;;;;2.00;1.90;;;5.80;99.90;;;;;;5016058;28;20227;-75
2024/01/07 07:26:47;;;;;;;2.10;2.10;;;5.80;99.90;;;;;;5015813;28;20239;-75
2024/01/07 07:29:14;;;;;;;2.63;2.53;;;5.90;99.90;;;;;;5015753;28;20230;-75
2024/01/07 07:31:41;;;;;;;2.30;2.20;;;5.90;99.90;;;;;;5016129;28;20218;-75
2024/01/07 07:34:11;;;;;;;2.40;2.30;;;5.90;99.90;;;;;;5014209;28;20258;-75
2024/01/07 07:36:39;;;;;;;2.60;2.50;;;6.00;99.90;;;;;;5016746;28;20231;-75
2024/01/07 07:39:06;;;;;;;2.35;2.25;;;5.90;99.90;;;;;;5014905;28;20216;-74
2024/01/07 07:41:33;;;;;;;2.38;2.28;;;5.90;99.90;;;;;;5015971;28;20210;-75
2024/01/07 07:44:00;;;;;;;3.00;2.90;;;5.90;99.90;;;;;;5016627;28;20219;-75
2024/01/07 07:46:27;;;;;;;2.38;2.28;;;5.90;99.90;;;;;;5017284;28;20227;-74
2024/01/07 07:48:54;;;;;;;2.42;2.33;;;5.90;99.90;;;;;;5011443;28;20228;-74
2024/01/07 07:51:23;;;;;;;2.65;2.50;;;5.90;99.90;;;;;;5014217;28;20215;-74
2024/01/07 07:53:50;;;;;;;2.40;2.30;;;6.00;99.90;;;;;;5016560;28;20227;-74
2024/01/07 07:56:17;;;;;;;2.30;2.20;;;5.90;99.90;;;;;;5013525;28;20215;-74
2024/01/07 07:58:44;;;;;;;2.25;2.15;;;5.90;99.90;;;;;;5016599;28;20226;-75
2024/01/07 08:01:11;;;;;;;2.55;2.45;;;5.90;99.90;;;;;;5011217;28;20921;-75
2024/01/07 08:03:38;;;;;;;2.75;2.65;;;6.00;99.90;;;;;;5015822;28;20240;-74
2024/01/07 08:06:06;;;;;;;2.25;2.15;;;6.00;99.90;;;;;;5014145;28;20213;-75
2024/01/07 08:08:34;;;;;;;2.40;2.30;;;6.00;99.90;;;;;;5015707;28;20235;-75
2024/01/07 08:11:01;;;;;;;2.28;2.17;;;6.10;99.90;;;;;;5013365;28;20269;-74
2024/01/07 08:13:28;;;;;;;2.38;2.28;;;6.10;99.90;;;;;;5016604;28;20255;-74
2024/01/07 08:15:55;;;;;;;2.42;2.33;;;6.10;99.90;;;;;;5011625;28;20205;-74
2024/01/07 08:18:22;;;;;;;2.40;2.30;;;6.10;99.90;;;;;;5014480;28;20216;-74
2024/01/07 08:20:49;;;;;;;2.58;2.38;;;6.20;99.90;;;;;;5015832;28;20211;-74
2024/01/07 08:23:16;;;;;;;2.20;2.10;;;6.20;99.90;;;;;;5001152;28;20255;-74
2024/01/07 08:25:45;;;;;;;2.30;2.20;;;6.20;99.90;;;;;;5015905;28;20211;-74
2024/01/07 08:28:12;;;;;;;1.85;1.85;;;6.30;99.90;;;;;;5011817;28;20621;-74
2024/01/07 08:30:39;;;;;;;2.22;2.13;;;6.30;99.90;;;;;;5011000;28;20234;-74
2024/01/07 08:33:06;;;;;;;2.05;1.98;;;6.40;99.90;;;;;;5013614;28;20223;-74
2024/01/07 08:35:33;;;;;;;2.22;2.13;;;6.40;99.90;;;;;;5012948;28;20202;-75
2024/01/07 08:38:00;;;;;;;2.33;2.22;;;6.50;99.90;;;;;;5014965;28;20223;-74
2024/01/07 08:40:29;;;;;;;2.38;2.28;;;6.50;99.90;;;;;;5013579;28;20199;-75
2024/01/07 08:42:57;;;;;;;2.10;2.00;;;6.50;99.90;;;;;;5013364;28;20591;-74
2024/01/07 08:45:24;;;;;;;2.40;2.30;;;6.60;99.90;;;;;;5009917;28;20212;-74
2024/01/07 08:47:51;;;;;;;2.17;2.08;;;6.60;99.90;;;;;;5012899;28;20239;-74
2024/01/07 08:50:18;;;;;;;2.40;2.30;;;6.60;99.90;;;;;;5010802;28;20235;-74
2024/01/07 08:52:46;;;;;;;2.60;2.50;;;6.50;99.90;;;;;;5012055;28;20239;-75
2024/01/07 08:55:13;;;;;;;2.35;2.25;;;6.50;99.90;;;;;;5009433;28;20218;-75
2024/01/07 08:57:40;;;;;;;2.70;2.60;;;6.60;99.90;;;;;;5011206;28;20231;-75
2024/01/07 09:00:10;;;;;;;2.80;2.70;;;6.60;99.90;;;;;;5012477;28;20238;-74
2024/01/07 09:02:37;;;;;;;2.60;2.50;;;6.60;99.90;;;;;;5014895;28;20877;-75
2024/01/07 09:05:05;;;;;;;2.40;2.30;;;6.60;99.90;;;;;;5011967;28;20717;-74
2024/01/07 09:07:32;;;;;;;2.53;2.42;;;6.60;99.90;;;;;;5012463;28;20226;-74
2024/01/07 09:10:00;;;;;;;2.10;2.00;;;6.60;99.90;;;;;;5010331;28;20795;-75
2024/01/07 09:12:28;;;;;;;2.30;2.20;;;6.60;99.90;;;;;;5011354;28;20647;-75
2024/01/07 09:14:55;;;;;;;2.30;2.20;;;6.60;99.90;;;;;;5011349;28;20207;-75
2024/01/07 09:17:23;;;;;;;2.45;2.35;;;6.60;99.90;;;;;;5014041;28;20227;-75
2024/01/07 09:19:50;;;;;;;3.58;3.38;;;6.70;99.90;;;;;;5012610;28;20211;-75
2024/01/07 09:22:17;;;;;;;3.03;2.83;;;6.70;99.90;;;;;;5011101;28;20231;-75
2024/01/07 09:24:44;;;;;;;2.75;2.65;;;6.70;99.90;;;;;;5011708;28;20686;-75
2024/01/07 09:27:11;;;;;;;3.60;3.30;;;6.70;99.90;;;;;;5012089;28;20234;-75
2024/01/07 09:29:38;;;;;;;3.03;2.83;;;6.70;99.90;;;;;;5010530;28;20666;-75
2024/01/07 09:32:06;;;;;;;3.10;2.97;;;6.70;99.90;;;;;;5012435;28;20231;-75
2024/01/07 09:34:34;;;;;;;2.72;2.60;;;6.80;99.90;;;;;;5013810;28;20204;-75
2024/01/07 09:37:02;;;;;;;2.58;2.47;;;6.80;99.90;;;;;;5014059;28;20234;-75
2024/01/07 09:39:29;;;;;;;3.10;2.90;;;6.90;99.90;;;;;;5014558;28;20286;-75
2024/01/07 09:41:56;;;;;;;3.58;3.20;;;6.90;99.90;;;;;;5014043;28;20203;-74
2024/01/07 09:44:24;;;;;;;3.13;2.92;;;6.90;99.90;;;;;;5009626;28;20223;-75
2024/01/07 09:46:51;;;;;;;2.85;2.65;;;6.90;99.90;;;;;;5009165;28;20224;-75
2024/01/07 09:49:19;;;;;;;2.90;2.80;;;6.90;99.90;;;;;;5009263;28;20222;-75
2024/01/07 09:51:51;;;;;;;2.35;2.25;;;6.90;99.90;;;;;;5009400;28;20215;-75
2024/01/07 09:54:20;;;;;;;2.40;2.30;;;7.00;99.90;;;;;;5014081;28;20640;-75
2024/01/07 09:56:55;;;;;;;3.05;2.85;;;7.00;99.90;;;;;;5010778;28;20212;-75
2024/01/07 09:59:23;;;;;;;2.30;2.20;;;7.00;99.90;;;;;;5015371;28;20204;-76
2024/01/07 10:01:52;;;;;;;2.63;2.53;;;7.00;99.90;;;;;;5014123;28;20742;-75
2024/01/07 10:04:19;;;;;;;2.30;2.20;;;7.00;99.90;;;;;;5013426;28;20215;-74
2024/01/07 10:06:48;;;;;;;2.55;2.38;;;7.00;99.90;;;;;;5010255;28;20204;-75
2024/01/07 10:09:17;;;;;;;2.65;2.55;;;7.00;99.90;;;;;;5014341;28;20330;-74
2024/01/07 10:11:44;;;;;;;2.38;2.17;;;7.10;99.90;;;;;;5015067;28;20582;-75
2024/01/07 10:14:11;;;;;;;2.55;2.45;;;7.10;99.90;;;;;;5014932;28;20708;-75
2024/01/07 10:16:39;;;;;;;2.70;2.60;;;7.10;99.90;;;;;;5013664;28;20211;-75
2024/01/07 10:19:07;;;;;;;2.30;2.20;;;7.10;99.90;;;;;;5011839;28;20224;-75
2024/01/07 10:21:34;;;;;;;2.20;2.10;;;7.10;99.90;;;;;;5013062;28;20203;-75
2024/01/07 10:24:10;;;;;;;2.20;2.10;;;7.10;99.90;;;;;;5015980;28;20227;-75
2024/01/07 10:26:39;;;;;;;2.47;2.38;;;7.20;99.90;;;;;;5015406;28;20306;-74
2024/01/07 10:29:07;;;;;;;2.40;2.30;;;7.20;99.90;;;;;;5014460;28;20319;-74
2024/01/07 10:31:35;;;;;;;2.50;2.40;;;7.20;99.90;;;;;;5018006;28;20206;-75
2024/01/07 10:34:03;;;;;;;2.50;2.40;;;7.20;99.90;;;;;;5012379;28;20246;-73
2024/01/07 10:36:31;;;;;;;2.30;2.20;;;7.30;99.90;;;;;;5018001;28;20681;-73
2024/01/07 10:38:58;;;;;;;2.17;2.08;;;7.30;99.90;;;;;;5011797;28;20231;-74
2024/01/07 10:41:29;;;;;;;2.50;2.38;;;7.40;99.90;;;;;;5017233;28;20211;-73
2024/01/07 10:43:57;;;;;;;2.80;2.60;;;7.50;99.90;;;;;;5009163;28;20227;-73
2024/01/07 10:46:26;;;;;;;2.60;2.50;;;7.50;99.90;;;;;;5012268;28;21205;-73
2024/01/07 10:49:00;;;;;;;2.58;2.40;;;7.70;99.90;;;;;;5012678;28;20212;-74
2024/01/07 10:51:30;;;;;;;2.85;2.70;;;7.80;99.90;;;;;;5011211;28;20769;-73
2024/01/07 10:53:57;;;;;;;2.95;2.83;;;7.90;99.90;;;;;;5016964;28;20223;-74
2024/01/07 10:56:25;;;;;;;2.65;2.55;;;8.10;99.90;;;;;;5016410;28;20204;-74
2024/01/07 10:58:56;;;;;;;2.90;2.70;;;8.20;99.90;;;;;;5014095;28;20235;-74
2024/01/07 11:01:23;;;;;;;2.50;2.40;;;8.30;99.90;;;;;;5014003;28;22063;-73
2024/01/07 11:03:58;;;;;;;2.30;2.20;;;8.30;99.90;;;;;;5015661;28;20242;-73
2024/01/07 11:06:34;;;;;;;2.67;2.20;;;8.40;99.90;;;;;;5015962;28;20336;-74
2024/01/07 11:09:10;;;;;;;2.40;2.30;;;8.50;99.90;;;;;;5012415;28;20227;-74
2024/01/07 11:11:41;;;;;;;1.98;1.88;;;8.50;99.90;;;;;;5014738;28;20199;-74
2024/01/07 11:14:37;;;;;;;2.30;2.20;;;8.60;99.90;;;;;;5013315;28;20246;-74
2024/01/07 11:17:04;;;;;;;2.03;1.92;;;8.60;99.90;;;;;;5016470;28;20686;-74
2024/01/07 11:19:31;;;;;;;2.15;2.05;;;8.60;99.90;;;;;;5015642;28;20204;-74
2024/01/07 11:22:24;;;;;;;1.85;1.75;;;8.70;99.90;;;;;;5013064;28;20544;-74
2024/01/07 11:24:52;;;;;;;2.30;2.20;;;8.70;99.90;;;;;;5014201;28;20506;-74
2024/01/07 11:27:19;;;;;;;2.10;2.00;;;8.70;99.90;;;;;;5014019;28;20215;-74
2024/01/07 11:29:55;;;;;;;1.80;1.80;;;8.70;99.90;;;;;;5017829;28;20223;-74
2024/01/07 11:32:25;;;;;;;2.20;2.10;;;8.70;99.90;;;;;;5015481;28;20222;-74
2024/01/07 11:34:53;;;;;;;1.90;1.80;;;8.70;99.90;;;;;;5016447;28;20235;-74
2024/01/07 11:37:21;;;;;;;1.98;1.88;;;8.70;99.90;;;;;;5013542;28;20234;-73
2024/01/07 11:39:49;;;;;;;2.15;2.05;;;8.70;99.90;;;;;;5018329;28;20288;-74
2024/01/07 11:42:16;;;;;;;2.28;2.17;;;8.70;99.90;;;;;;5013114;28;20227;-73
2024/01/07 11:44:49;;;;;;;2.20;2.10;;;8.70;99.90;;;;;;5014613;28;20559;-74
2024/01/07 11:47:17;;;;;;;2.17;2.08;;;8.70;99.90;;;;;;5014720;28;20247;-74
2024/01/07 11:49:44;;;;;;;2.10;2.00;;;8.70;99.90;;;;;;5013450;28;20215;-74
2024/01/07 11:52:11;;;;;;;2.83;2.63;;;8.70;99.90;;;;;;5012838;28;20227;-73
2024/01/07 11:54:39;;;;;;;2.20;2.10;;;8.70;99.90;;;;;;5017074;28;20208;-73
2024/01/07 11:57:06;;;;;;;2.30;2.20;;;8.70;99.90;;;;;;5013580;28;20834;-73
2024/01/07 11:59:34;;;;;;;2.10;2.00;;;8.70;99.90;;;;;;5016268;28;20207;-72
2024/01/07 12:02:04;;;;;;;2.00;1.90;;;8.70;99.90;;;;;;5016027;28;20207;-72
2024/01/07 12:04:31;;;;;;;1.98;1.88;;;8.70;99.90;;;;;;5015082;28;20246;-74
2024/01/07 12:06:58;;;;;;;2.10;2.00;;;8.80;99.90;;;;;;5015428;28;20207;-73
2024/01/07 12:09:25;;;;;;;1.80;1.70;;;8.80;99.90;;;;;;5011543;28;20199;-74
2024/01/07 12:11:53;;;;;;;1.98;1.90;;;8.90;99.90;;;;;;5012528;28;20208;-74
2024/01/07 12:14:20;;;;;;;2.00;1.90;;;8.90;99.90;;;;;;5013966;28;20220;-74
2024/01/07 12:16:47;;;;;;;1.83;1.73;;;9.00;99.90;;;;;;5013981;28;20207;-74
2024/01/07 12:19:16;;;;;;;2.20;2.10;;;9.00;99.90;;;;;;5010744;28;20875;-73
2024/01/07 12:21:43;;;;;;;2.00;1.90;;;9.00;99.90;;;;;;5009269;28;20200;-74
2024/01/07 12:24:10;;;;;;;2.00;1.90;;;9.00;99.90;;;;;;5010091;28;20216;-73
2024/01/07 12:26:37;;;;;;;2.00;1.90;;;9.00;99.90;;;;;;5010385;28;20255;-73
2024/01/07 12:29:06;;;;;;;1.98;1.88;;;9.00;99.90;;;;;;5008715;28;20270;-72
2024/01/07 12:31:34;;;;;;;2.22;2.13;;;8.90;99.90;;;;;;5017426;28;20216;-74
2024/01/07 12:34:03;;;;;;;2.83;2.53;;;8.90;99.90;;;;;;5008541;28;20725;-74
2024/01/07 12:36:32;;;;;;;2.50;2.30;;;8.90;99.90;;;;;;5015606;28;20197;-73
2024/01/07 12:38:59;;;;;;;2.40;2.30;;;8.90;99.90;;;;;;5012569;28;20302;-74
2024/01/07 12:41:26;;;;;;;1.92;1.83;;;8.90;99.90;;;;;;5015323;28;20212;-74
2024/01/07 12:43:53;;;;;;;2.20;2.10;;;8.90;99.90;;;;;;5010256;28;20234;-73
2024/01/07 12:46:20;;;;;;;2.10;2.00;;;8.90;99.90;;;;;;5013046;28;20213;-73
2024/01/07 12:48:47;;;;;;;2.10;2.00;;;8.90;99.90;;;;;;5010894;28;20734;-73
2024/01/07 12:51:15;;;;;;;1.95;1.85;;;9.00;99.90;;;;;;5007345;28;20219;-74
2024/01/07 12:53:43;;;;;;;2.00;1.90;;;9.00;99.90;;;;;;5007009;28;20232;-74
2024/01/07 12:56:10;;;;;;;2.28;2.17;;;9.00;99.90;;;;;;5013129;28;20207;-73
2024/01/07 12:58:37;;;;;;;2.40;2.30;;;8.90;99.90;;;;;;5011530;28;20231;-74
2024/01/07 13:01:04;;;;;;;3.00;2.80;;;8.90;99.90;;;;;;5011713;28;20199;-74